Time;durP1;ratioP1;P1;durP2;ratioP2;P2;SDS_P1;SDS_P2;PMS_P1;PMS_P2;Temp;Humidity;BMP_temperature;BMP_pressure;BME280_temperature;BME280_humidity;BME280_pressure;Samples;Min_cycle;Max_cycle;Signal;HPM_P1;HPM_P2
2022/05/15 00:01:31;;;;;;;3.05;1.13;;;;;;;12.84;100.00;100055.97;7392159;19;20018;-58
2022/05/15 00:03:57;;;;;;;4.00;1.60;;;;;;;12.87;100.00;100045.88;7393867;19;20010;-58
2022/05/15 00:06:23;;;;;;;0.75;0.73;;;;;;;12.87;100.00;100049.44;7390173;19;20019;-58
2022/05/15 00:08:49;;;;;;;0.93;0.75;;;;;;;12.90;100.00;100044.91;7393434;19;20029;-57
2022/05/15 00:11:19;;;;;;;5.38;0.93;;;;;;;12.89;100.00;100046.91;7393094;19;20006;-58
2022/05/15 00:13:47;;;;;;;2.28;1.05;;;;;;;12.92;100.00;100045.19;7392513;19;20407;-58
2022/05/15 00:16:14;;;;;;;3.22;0.73;;;;;;;12.92;100.00;100039.59;7391561;19;20566;-58
2022/05/15 00:18:40;;;;;;;1.02;0.75;;;;;;;12.96;100.00;100040.16;7392099;19;20013;-58
2022/05/15 00:21:07;;;;;;;1.23;0.80;;;;;;;13.01;100.00;100039.47;7394790;19;20002;-58
2022/05/15 00:23:34;;;;;;;2.67;0.68;;;;;;;12.99;100.00;100038.41;7390949;19;20010;-58
2022/05/15 00:26:00;;;;;;;3.97;1.40;;;;;;;12.94;100.00;100034.28;7388604;19;20109;-58
2022/05/15 00:28:28;;;;;;;5.05;1.45;;;;;;;12.88;100.00;100025.06;7392690;19;20003;-58
2022/05/15 00:30:55;;;;;;;2.80;1.13;;;;;;;12.98;100.00;100032.03;7391302;19;20019;-58
2022/05/15 00:33:22;;;;;;;4.20;1.40;;;;;;;13.01;100.00;100025.50;7391791;19;20037;-57
2022/05/15 00:35:52;;;;;;;5.13;1.60;;;;;;;13.09;100.00;100032.22;7391959;19;20467;-58
2022/05/15 00:38:20;;;;;;;3.50;1.80;;;;;;;13.10;100.00;100028.19;7391881;19;20010;-57
2022/05/15 00:40:48;;;;;;;1.40;1.30;;;;;;;13.06;100.00;100019.22;7390446;19;20070;-58
2022/05/15 00:43:43;;;;;;;10.00;3.08;;;;;;;13.16;100.00;100023.44;7391918;19;20041;-58
2022/05/15 00:46:17;;;;;;;2.88;1.55;;;;;;;13.16;100.00;100031.81;7391598;19;20027;-58
2022/05/15 00:48:47;;;;;;;4.03;1.23;;;;;;;13.14;100.00;100034.34;7391086;19;20030;-58
2022/05/15 00:51:40;;;;;;;3.08;1.65;;;;;;;13.11;100.00;100035.31;7390973;19;20014;-57
2022/05/15 00:54:16;;;;;;;9.98;1.75;;;;;;;13.13;100.00;100037.59;7389865;19;20463;-57
2022/05/15 00:56:51;;;;;;;3.60;0.98;;;;;;;13.16;100.00;100040.22;7389818;19;20060;-57
2022/05/15 00:59:20;;;;;;;3.30;1.73;;;;;;;13.25;100.00;100034.47;7390150;19;20074;-57
2022/05/15 01:01:47;;;;;;;3.80;0.88;;;;;;;13.35;100.00;100043.47;7392983;19;20014;-58
2022/05/15 01:04:15;;;;;;;6.13;1.52;;;;;;;13.37;100.00;100041.75;7388845;19;20051;-58
2022/05/15 01:06:43;;;;;;;8.82;1.60;;;;;;;13.34;100.00;100042.72;7389391;19;20027;-58
2022/05/15 01:09:13;;;;;;;1.63;1.00;;;;;;;13.31;100.00;100040.13;7391870;19;20015;-58
2022/05/15 01:11:43;;;;;;;2.00;0.70;;;;;;;13.38;100.00;100043.25;7390102;19;20015;-58
2022/05/15 01:14:13;;;;;;;1.07;0.93;;;;;;;13.44;100.00;100041.31;7389731;19;20043;-57
2022/05/15 01:16:40;;;;;;;2.65;0.98;;;;;;;13.47;100.00;100031.94;7389336;19;20269;-58
2022/05/15 01:19:08;;;;;;;1.27;1.17;;;;;;;13.45;100.00;100034.44;7389890;19;20033;-58
2022/05/15 01:21:49;;;;;;;2.95;1.42;;;;;;;13.49;100.00;100034.25;7390817;19;20046;-58
2022/05/15 01:24:16;;;;;;;1.35;1.25;;;;;;;13.45;100.00;100037.25;7390947;19;20010;-58
2022/05/15 01:26:45;;;;;;;0.75;0.60;;;;;;;13.38;100.00;100034.13;7388436;19;20015;-57
2022/05/15 01:29:14;;;;;;;4.85;1.10;;;;;;;13.46;100.00;100033.22;7388987;19;20412;-57
2022/05/15 01:31:42;;;;;;;1.48;1.38;;;;;;;13.45;100.00;100028.84;7392451;19;20015;-57
2022/05/15 01:34:10;;;;;;;0.70;0.70;;;;;;;13.60;100.00;100031.56;7388787;19;20022;-58
2022/05/15 01:36:38;;;;;;;8.10;0.98;;;;;;;13.72;100.00;100026.88;7389036;19;20354;-58
2022/05/15 01:39:07;;;;;;;0.93;0.88;;;;;;;13.82;100.00;100036.66;7389340;19;20397;-57
2022/05/15 01:41:34;;;;;;;1.50;0.50;;;;;;;13.79;100.00;100040.44;7390258;19;20345;-57
2022/05/15 01:47:31;;;;;;;1.20;0.98;;;;;;;13.85;100.00;100041.25;7391538;19;20010;-64
2022/05/15 01:49:58;;;;;;;1.30;0.47;;;;;;;13.77;100.00;100034.56;7387428;19;20383;-64
2022/05/15 01:52:24;;;;;;;1.60;0.70;;;;;;;13.77;100.00;100031.75;7390390;19;20034;-64
2022/05/15 01:54:50;;;;;;;2.47;1.40;;;;;;;13.80;100.00;100027.97;7384890;19;20401;-63
2022/05/15 01:57:16;;;;;;;1.80;1.05;;;;;;;13.81;100.00;100035.88;7384605;19;20010;-63
2022/05/15 01:59:43;;;;;;;1.08;0.30;;;;;;;13.82;100.00;100043.00;7387164;19;20494;-63
2022/05/15 02:02:09;;;;;;;1.98;1.02;;;;;;;13.79;100.00;100037.63;7387798;19;20006;-63
2022/05/15 02:04:36;;;;;;;1.05;0.60;;;;;;;13.92;100.00;100043.63;7385701;19;20022;-63
2022/05/15 02:07:02;;;;;;;2.10;0.65;;;;;;;13.94;100.00;100029.91;7388965;19;20015;-64
2022/05/15 02:09:29;;;;;;;0.68;0.68;;;;;;;13.97;100.00;100031.72;7386768;19;20018;-64
2022/05/15 02:11:55;;;;;;;4.07;1.10;;;;;;;13.99;100.00;100029.94;7388744;19;20024;-64
2022/05/15 02:14:22;;;;;;;1.17;0.80;;;;;;;13.98;100.00;100034.00;7387780;19;20432;-64
2022/05/15 02:16:48;;;;;;;2.15;0.85;;;;;;;13.97;100.00;100032.47;7387840;19;20398;-64
2022/05/15 02:19:15;;;;;;;1.05;0.68;;;;;;;13.97;100.00;100032.47;7389758;19;20014;-64
2022/05/15 02:21:41;;;;;;;5.18;0.73;;;;;;;13.93;100.00;100036.75;7387939;19;20088;-64
2022/05/15 02:24:08;;;;;;;2.97;1.45;;;;;;;13.90;100.00;100040.56;7386286;19;20070;-64
2022/05/15 02:26:37;;;;;;;1.98;0.80;;;;;;;13.87;100.00;100047.13;7386427;19;20066;-64
2022/05/15 02:29:05;;;;;;;0.82;0.82;;;;;;;13.93;100.00;100048.72;7387027;19;20021;-64
2022/05/15 02:31:32;;;;;;;2.08;0.77;;;;;;;14.11;100.00;100053.22;7388278;19;20078;-64
2022/05/15 02:34:00;;;;;;;2.08;1.05;;;;;;;14.21;100.00;100046.94;7386492;19;20082;-64
2022/05/15 02:36:29;;;;;;;0.80;0.57;;;;;;;14.25;100.00;100052.34;7385163;19;20077;-64
2022/05/15 02:38:55;;;;;;;1.15;0.70;;;;;;;14.34;100.00;100054.97;7385186;19;20379;-64
2022/05/15 02:41:22;;;;;;;0.82;0.57;;;;;;;14.40;100.00;100047.41;7385877;19;20390;-64
2022/05/15 02:43:50;;;;;;;2.95;1.20;;;;;;;14.45;100.00;100052.28;7385468;19;20014;-55
2022/05/15 02:46:16;;;;;;;2.83;0.98;;;;;;;14.48;100.00;100045.69;7393300;19;20014;-55
2022/05/15 02:51:30;;;;;;;1.00;0.63;;;;;;;14.67;100.00;100041.25;7393644;19;20047;-55
2022/05/15 02:53:56;;;;;;;9.00;1.40;;;;;;;14.76;100.00;100046.66;7390694;19;20018;-55
2022/05/15 02:56:26;;;;;;;10.32;1.45;;;;;;;14.81;100.00;100037.50;7390028;19;20023;-55
2022/05/15 02:58:52;;;;;;;1.42;1.00;;;;;;;14.85;100.00;100032.44;7394272;19;20015;-55
2022/05/15 03:01:19;;;;;;;7.78;1.20;;;;;;;14.96;100.00;100032.50;7393664;19;20010;-56
2022/05/15 03:03:45;;;;;;;5.40;1.65;;;;;;;15.05;100.00;100035.09;7396329;19;20015;-56
2022/05/15 03:06:12;;;;;;;9.38;1.35;;;;;;;15.09;100.00;100030.00;7393468;19;20458;-56
2022/05/15 03:08:42;;;;;;;3.50;1.73;;;;;;;15.15;100.00;100022.41;7394860;19;20023;-57
2022/05/15 03:11:09;;;;;;;1.37;0.77;;;;;;;15.25;100.00;100008.16;7394049;19;20086;-58
2022/05/15 03:13:36;;;;;;;3.10;1.25;;;;;;;15.22;100.00;100007.13;7394480;19;20335;-58
2022/05/15 03:16:03;;;;;;;3.70;1.92;;;;;;;15.20;100.00;100018.84;7393181;19;20010;-57
2022/05/15 03:18:29;;;;;;;7.30;1.50;;;;;;;15.16;100.00;100012.72;7391889;19;20023;-57
2022/05/15 03:20:55;;;;;;;3.42;1.35;;;;;;;15.18;100.00;100012.97;7397669;19;20011;-57
2022/05/15 03:23:21;;;;;;;1.30;0.73;;;;;;;15.16;100.00;100011.94;7392698;19;20014;-58
2022/05/15 03:25:48;;;;;;;7.40;1.83;;;;;;;15.22;100.00;100011.97;7392055;19;20613;-58
2022/05/15 03:28:14;;;;;;;1.33;1.00;;;;;;;15.27;100.00;100006.38;7392362;19;20030;-58
2022/05/15 03:30:44;;;;;;;2.80;1.45;;;;;;;15.35;100.00;100006.66;7391679;19;20031;-58
2022/05/15 03:33:10;;;;;;;2.00;1.33;;;;;;;15.39;100.00;100004.38;7393547;19;20022;-58
2022/05/15 03:35:37;;;;;;;5.38;2.03;;;;;;;15.37;100.00;99998.50;7391735;19;20014;-58
2022/05/15 03:38:06;;;;;;;2.40;1.33;;;;;;;15.32;100.00;99985.22;7388859;19;20010;-58
2022/05/15 03:40:33;;;;;;;4.22;2.00;;;;;;;15.23;100.00;99974.22;7395640;19;20014;-58
2022/05/15 03:42:59;;;;;;;6.80;1.25;;;;;;;15.17;100.00;99969.38;7396164;19;20010;-58
2022/05/15 03:45:25;;;;;;;7.68;2.15;;;;;;;15.17;100.00;99972.16;7392346;19;20078;-58
2022/05/15 03:47:54;;;;;;;1.45;1.08;;;;;;;15.20;100.00;99962.72;7393466;19;20010;-58
2022/05/15 03:50:25;;;;;;;5.28;1.15;;;;;;;15.17;100.00;99955.34;7395186;19;20047;-58
2022/05/15 03:52:51;;;;;;;2.15;1.00;;;;;;;15.13;100.00;99957.63;7397296;19;20014;-58
2022/05/15 03:55:17;;;;;;;2.88;1.42;;;;;;;15.09;100.00;99945.84;7391132;19;20006;-58
2022/05/15 03:57:44;;;;;;;3.28;1.70;;;;;;;15.08;100.00;99943.56;7390010;19;20064;-58
2022/05/15 04:00:15;;;;;;;3.17;1.05;;;;;;;15.05;100.00;99942.53;7393995;19;20358;-58
2022/05/15 04:02:42;;;;;;;1.70;0.70;;;;;;;15.10;100.00;99941.03;7396561;19;20021;-58
2022/05/15 04:05:10;;;;;;;10.82;1.15;;;;;;;15.06;100.00;99941.28;7391217;19;20023;-58
2022/05/15 04:07:48;;;;;;;4.78;1.00;;;;;;;15.02;100.00;99939.97;7391226;19;20011;-58
2022/05/15 04:10:17;;;;;;;2.88;1.48;;;;;;;15.03;100.00;99945.06;7390229;19;20010;-58
2022/05/15 04:12:44;;;;;;;10.35;1.58;;;;;;;15.12;100.00;99953.28;7394385;19;20015;-58
2022/05/15 04:15:11;;;;;;;1.00;0.75;;;;;;;15.13;100.00;99949.22;7391545;19;20006;-58
2022/05/15 04:17:46;;;;;;;0.70;0.68;;;;;;;15.27;100.00;99960.72;7391219;19;20454;-58
2022/05/15 04:20:15;;;;;;;1.95;0.52;;;;;;;15.31;100.00;99953.59;7394288;19;20014;-58
2022/05/15 04:22:42;;;;;;;7.15;1.67;;;;;;;15.40;100.00;99941.38;7394705;19;20015;-58
2022/05/15 04:25:11;;;;;;;4.65;1.50;;;;;;;15.47;100.00;99944.47;7392127;19;20440;-58
2022/05/15 04:27:39;;;;;;;2.17;1.00;;;;;;;15.51;100.00;99947.03;7390096;19;20027;-58
2022/05/15 04:30:07;;;;;;;0.82;0.82;;;;;;;15.52;100.00;99948.56;7391596;19;20034;-58
2022/05/15 04:32:33;;;;;;;2.47;1.30;;;;;;;15.55;100.00;99942.69;7392933;19;20015;-58
2022/05/15 04:34:59;;;;;;;4.25;1.05;;;;;;;15.63;100.00;99954.22;7390636;19;20055;-58
2022/05/15 04:37:26;;;;;;;3.20;1.08;;;;;;;15.59;100.00;99951.63;7389351;19;20430;-58
2022/05/15 04:39:52;;;;;;;8.48;1.45;;;;;;;15.57;100.00;99950.63;7393582;19;20037;-58
2022/05/15 04:42:18;;;;;;;0.85;0.52;;;;;;;15.53;100.00;99948.06;7394460;19;20465;-58
2022/05/15 04:44:45;;;;;;;3.22;1.00;;;;;;;15.50;100.00;99954.69;7391359;19;20013;-58
2022/05/15 04:47:14;;;;;;;1.95;1.13;;;;;;;15.54;100.00;99963.66;7392505;19;20018;-58
2022/05/15 04:49:41;;;;;;;6.47;1.00;;;;;;;15.56;100.00;99968.75;7392907;19;20010;-58
2022/05/15 04:52:07;;;;;;;4.70;2.05;;;;;;;15.54;100.00;99974.09;7393860;19;20033;-58
2022/05/15 04:54:33;;;;;;;11.88;0.85;;;;;;;15.54;100.00;99976.91;7392582;19;20007;-58
2022/05/15 04:56:59;;;;;;;1.05;0.80;;;;;;;15.64;100.00;99983.81;7390675;19;20031;-58
2022/05/15 04:59:25;;;;;;;5.70;1.05;;;;;;;15.67;100.00;99977.97;7392296;19;20011;-58
2022/05/15 05:01:51;;;;;;;3.42;0.80;;;;;;;15.73;100.00;99989.19;7394185;19;20450;-58
2022/05/15 05:04:18;;;;;;;5.70;1.67;;;;;;;15.77;100.00;99998.91;7392745;19;20014;-58
2022/05/15 05:06:44;;;;;;;6.22;0.90;;;;;;;15.80;100.00;100000.69;7395437;19;20011;-58
2022/05/15 05:09:11;;;;;;;2.53;1.38;;;;;;;15.82;100.00;100008.63;7390513;19;20014;-58
2022/05/15 05:11:37;;;;;;;2.63;1.13;;;;;;;15.83;100.00;100008.09;7396282;19;20477;-58
2022/05/15 05:14:04;;;;;;;2.13;0.43;;;;;;;15.84;100.00;100001.22;7393955;19;20027;-58
2022/05/15 05:16:31;;;;;;;1.70;0.98;;;;;;;15.83;100.00;99996.88;7390564;19;20011;-58
2022/05/15 05:18:57;;;;;;;2.90;0.88;;;;;;;15.82;100.00;99995.34;7390859;19;20020;-58
2022/05/15 05:21:23;;;;;;;2.20;0.60;;;;;;;15.85;100.00;99994.31;7392550;19;20015;-58
2022/05/15 05:23:49;;;;;;;2.00;0.63;;;;;;;15.87;100.00;99991.00;7390571;19;20099;-58
2022/05/15 05:26:15;;;;;;;3.13;1.00;;;;;;;15.91;100.00;99985.91;7390207;19;20462;-58
2022/05/15 05:28:42;;;;;;;5.47;1.73;;;;;;;15.93;100.00;99983.34;7389596;19;20011;-58
2022/05/15 05:31:08;;;;;;;3.65;1.40;;;;;;;15.91;100.00;99985.91;7390605;19;20656;-58
2022/05/15 05:33:34;;;;;;;1.25;0.93;;;;;;;15.96;100.00;99993.56;7390210;19;20011;-58
2022/05/15 05:36:01;;;;;;;3.72;1.17;;;;;;;15.99;100.00;99981.31;7390121;19;20015;-58
2022/05/15 05:38:27;;;;;;;6.38;1.52;;;;;;;16.08;100.00;99980.28;7389609;19;20007;-58
2022/05/15 05:40:53;;;;;;;1.23;0.90;;;;;;;16.14;100.00;99984.63;7392684;19;20033;-58
2022/05/15 05:43:19;;;;;;;8.32;1.35;;;;;;;16.21;100.00;99980.56;7387562;19;20022;-58
2022/05/15 05:45:45;;;;;;;1.67;1.15;;;;;;;16.31;100.00;99985.41;7388815;19;20341;-58
2022/05/15 05:48:11;;;;;;;4.53;0.95;;;;;;;16.38;100.00;99984.88;7387152;19;20482;-58
2022/05/15 05:50:38;;;;;;;4.72;1.35;;;;;;;16.44;100.00;99971.59;7393464;19;20086;-58
2022/05/15 05:53:05;;;;;;;2.35;0.47;;;;;;;16.50;100.00;99966.75;7393910;19;20376;-58
2022/05/15 05:55:35;;;;;;;1.77;1.10;;;;;;;16.55;100.00;99970.84;7387643;19;20011;-58
2022/05/15 05:58:03;;;;;;;2.65;0.85;;;;;;;16.56;100.00;99964.72;7385246;19;20478;-58
2022/05/15 06:00:33;;;;;;;2.47;1.13;;;;;;;16.54;100.00;99974.94;7387907;19;20048;-58
2022/05/15 06:05:46;;;;;;;1.23;0.95;;;;;;;16.63;100.00;99969.78;7388632;19;20003;-58
2022/05/15 06:08:13;;;;;;;5.75;1.35;;;;;;;16.66;100.00;99963.16;7388219;19;20070;-58
2022/05/15 06:10:40;;;;;;;1.63;1.25;;;;;;;16.68;100.00;99969.03;7388996;19;20017;-58
2022/05/15 06:13:07;;;;;;;3.83;1.60;;;;;;;16.69;100.00;99969.78;7388150;19;20018;-58
2022/05/15 06:15:34;;;;;;;1.85;1.25;;;;;;;16.72;100.00;99973.63;7388870;19;20018;-58
2022/05/15 06:18:02;;;;;;;4.07;1.40;;;;;;;16.72;100.00;99968.75;7387366;19;20105;-58
2022/05/15 06:20:30;;;;;;;3.10;1.35;;;;;;;16.80;100.00;99975.41;7398143;19;20010;-58
2022/05/15 06:22:56;;;;;;;2.70;1.13;;;;;;;16.90;100.00;99967.41;7400941;19;20014;-58
2022/05/15 06:25:23;;;;;;;2.97;0.68;;;;;;;17.02;100.00;99963.31;7395058;19;20012;-58
2022/05/15 06:27:50;;;;;;;1.25;0.68;;;;;;;17.06;100.00;99961.75;7396037;19;20544;-58
2022/05/15 06:30:17;;;;;;;2.75;0.95;;;;;;;17.26;100.00;99955.03;7396436;19;20042;-58
2022/05/15 06:32:43;;;;;;;1.70;1.23;;;;;;;17.38;100.00;99962.09;7399753;19;20011;-58
2022/05/15 06:35:12;;;;;;;2.47;0.68;;;;;;;17.48;100.00;99971.78;7395493;19;20007;-58
2022/05/15 06:37:39;;;;;;;8.80;1.45;;;;;;;17.50;100.00;99957.19;7393066;19;20026;-58
2022/05/15 06:40:07;;;;;;;9.07;1.15;;;;;;;17.51;100.00;99959.50;7398133;19;20090;-58
2022/05/15 06:42:34;;;;;;;1.27;1.13;;;;;;;17.52;100.00;99955.38;7398100;19;20037;-58
2022/05/15 06:45:05;;;;;;;1.00;0.73;;;;;;;17.50;100.00;99941.06;7392615;19;20014;-58
2022/05/15 06:47:31;;;;;;;2.35;1.15;;;;;;;17.51;100.00;99941.84;7396124;19;20414;-58
2022/05/15 06:49:58;;;;;;;5.57;1.20;;;;;;;17.60;100.00;99950.75;7397195;19;20010;-58
2022/05/15 06:52:25;;;;;;;4.57;1.98;;;;;;;17.69;100.00;99950.44;7398730;19;20015;-58
2022/05/15 06:54:52;;;;;;;5.43;1.02;;;;;;;17.72;100.00;99952.19;7394947;19;20010;-58
2022/05/15 06:57:32;;;;;;;2.42;1.52;;;;;;;17.78;100.00;99955.75;7393558;19;20018;-58
2022/05/15 07:00:02;;;;;;;7.10;1.85;;;;;;;17.85;100.00;99958.00;7394512;19;20015;-58
2022/05/15 07:02:29;;;;;;;3.50;0.80;;;;;;;17.88;100.00;99954.16;7397848;19;20090;-58
2022/05/15 07:04:55;;;;;;;1.85;1.20;;;;;;;17.88;100.00;99954.16;7394786;19;20010;-58
2022/05/15 07:07:22;;;;;;;3.30;1.38;;;;;;;17.86;100.00;99950.31;7394327;19;20458;-58
2022/05/15 07:09:49;;;;;;;5.15;2.22;;;;;;;17.79;100.00;99957.28;7394359;19;20014;-58
2022/05/15 07:12:15;;;;;;;4.03;1.70;;;;;;;17.90;100.00;99951.56;7396453;19;20011;-58
2022/05/15 07:14:42;;;;;;;8.00;0.90;;;;;;;17.91;100.00;99946.69;7393894;19;20014;-58
2022/05/15 07:17:09;;;;;;;3.80;1.05;;;;;;;17.89;100.00;99940.81;7390957;19;20414;-58
2022/05/15 07:19:35;;;;;;;5.20;1.25;;;;;;;17.91;100.00;99943.88;7395577;19;20316;-58
2022/05/15 07:22:02;;;;;;;4.90;1.17;;;;;;;17.90;100.00;99945.94;7396526;19;20026;-58
2022/05/15 07:24:28;;;;;;;1.15;0.55;;;;;;;17.94;100.00;99949.22;7394808;19;20022;-58
2022/05/15 07:26:54;;;;;;;3.00;1.23;;;;;;;18.00;100.00;99949.94;7392299;19;20006;-58
2022/05/15 07:29:24;;;;;;;2.58;1.13;;;;;;;18.05;100.00;99951.19;7391864;19;20011;-58
2022/05/15 07:31:52;;;;;;;9.65;1.00;;;;;;;18.00;100.00;99949.94;7393489;19;20518;-58
2022/05/15 07:34:19;;;;;;;2.22;0.93;;;;;;;17.95;100.00;99947.19;7393674;19;20072;-58
2022/05/15 07:36:50;;;;;;;4.88;0.90;;;;;;;17.91;100.00;99953.09;7391375;19;20017;-58
2022/05/15 07:39:18;;;;;;;7.50;1.38;;;;;;;17.89;100.00;99957.69;7393093;19;20006;-57
2022/05/15 07:41:44;;;;;;;1.08;0.47;;;;;;;17.81;100.00;99949.06;7395529;19;20006;-58
2022/05/15 07:44:10;;;;;;;1.48;0.68;;;;;;;17.71;100.00;99949.91;7396151;19;20018;-58
2022/05/15 07:46:37;;;;;;;6.50;0.90;;;;;;;17.81;100.00;99949.06;7395616;19;20754;-57
2022/05/15 07:49:03;;;;;;;1.33;0.75;;;;;;;17.71;100.00;99961.19;7395866;19;20014;-58
2022/05/15 07:51:31;;;;;;;1.17;0.55;;;;;;;17.68;100.00;99957.34;7396196;19;20084;-58
2022/05/15 07:53:57;;;;;;;1.85;0.63;;;;;;;17.61;100.00;99963.53;7396090;19;20404;-57
2022/05/15 07:56:24;;;;;;;1.45;0.50;;;;;;;17.52;100.00;99960.28;7391454;19;20015;-57
2022/05/15 07:58:50;;;;;;;4.07;0.45;;;;;;;17.49;100.00;99962.06;7395042;19;20604;-58
2022/05/15 08:01:16;;;;;;;0.43;0.43;;;;;;;17.50;100.00;99957.97;7395564;19;20010;-57
2022/05/15 08:03:43;;;;;;;3.35;1.02;;;;;;;17.63;100.00;99960.97;7394893;19;20010;-57
2022/05/15 08:08:57;;;;;;;21.75;1.48;;;;;;;17.89;100.00;99952.84;7396113;19;20006;-57
2022/05/15 08:11:27;;;;;;;2.55;1.15;;;;;;;17.98;100.00;99958.16;7393089;19;20114;-57
2022/05/15 08:13:55;;;;;;;2.70;1.00;;;;;;;18.01;100.00;99943.03;7391003;19;20686;-57
2022/05/15 08:16:22;;;;;;;1.40;0.60;;;;;;;18.08;100.00;99956.53;7392815;19;20018;-57
2022/05/15 08:24:19;;;;;;;1.10;0.68;;;;;;;18.40;100.00;99939.09;7392201;19;20018;-57
2022/05/15 08:26:46;;;;;;;1.30;0.32;;;;;;;18.66;100.00;99936.53;7392177;19;20015;-57
2022/05/15 08:29:12;;;;;;;3.78;0.90;;;;;;;18.72;100.00;99926.72;7391696;19;20014;-58
2022/05/15 08:31:39;;;;;;;6.30;0.80;;;;;;;18.91;100.00;99936.00;7392808;19;20478;-57
2022/05/15 08:34:06;;;;;;;0.88;0.28;;;;;;;19.12;100.00;99943.97;7391432;19;20014;-57
2022/05/15 08:36:33;;;;;;;6.85;0.55;;;;;;;19.26;100.00;99937.84;7391343;19;20015;-57
2022/05/15 08:38:59;;;;;;;3.20;0.52;;;;;;;19.45;100.00;99927.34;7391311;19;20011;-58
2022/05/15 08:41:31;;;;;;;2.38;0.50;;;;;;;19.70;100.00;99932.91;7392580;19;20033;-57
2022/05/15 08:44:11;;;;;;;3.83;0.32;;;;;;;19.91;100.00;99933.84;7389195;19;20027;-57
2022/05/15 08:46:41;;;;;;;1.13;0.10;;;;;;;20.03;100.00;99935.22;7392111;19;20014;-57
2022/05/15 08:49:17;;;;;;;1.05;0.35;;;;;;;20.20;100.00;99928.00;7394450;19;20280;-57
2022/05/15 08:52:04;;;;;;;0.85;0.32;;;;;;;20.36;100.00;99918.44;7394196;19;20010;-57
2022/05/15 08:54:36;;;;;;;2.47;0.22;;;;;;;20.36;100.00;99918.44;7390610;19;20078;-57
2022/05/15 08:57:03;;;;;;;1.15;0.35;;;;;;;20.37;100.00;99919.97;7392704;19;20380;-57
2022/05/15 08:59:44;;;;;;;6.95;0.63;;;;;;;20.29;100.00;99912.69;7390091;19;20066;-57
2022/05/15 09:02:12;;;;;;;2.17;0.47;;;;;;;20.16;100.00;99901.31;7391236;19;20015;-57
2022/05/15 09:04:38;;;;;;;3.95;0.68;;;;;;;20.10;100.00;99900.63;7391077;19;20014;-57
2022/05/15 09:07:35;;;;;;;2.90;1.02;;;;;;;20.12;100.00;99892.41;7390792;19;20032;-57
2022/05/15 09:10:33;;;;;;;3.67;0.50;;;;;;;20.13;100.00;99889.00;7387601;19;20017;-57
2022/05/15 09:13:12;;;;;;;10.10;0.85;;;;;;;20.24;100.00;99888.06;7392206;19;20108;-57
2022/05/15 09:15:51;;;;;;;1.50;0.95;;;;;;;20.32;100.00;99883.28;7388863;19;20015;-57
2022/05/15 09:18:18;;;;;;;2.60;0.60;;;;;;;20.48;100.00;99882.22;7386357;19;20530;-57
2022/05/15 09:20:48;;;;;;;0.10;0.08;;;;;;;20.56;100.00;99885.94;7390851;19;20014;-57
2022/05/15 09:23:29;;;;;;;12.38;0.57;;;;;;;20.56;100.00;99879.50;7389887;19;20007;-57
2022/05/15 09:26:06;;;;;;;5.00;0.30;;;;;;;20.53;100.00;99881.34;7389344;19;20033;-57
2022/05/15 09:28:43;;;;;;;2.05;0.32;;;;;;;20.36;100.00;99873.19;7390685;19;20021;-57
2022/05/15 09:31:25;;;;;;;4.00;0.82;;;;;;;20.15;100.00;99882.81;7390289;19;20007;-57
2022/05/15 09:33:56;;;;;;;3.60;0.70;;;;;;;19.95;100.00;99877.75;7389251;19;20026;-57
2022/05/15 09:36:34;;;;;;;9.20;1.02;;;;;;;19.74;100.00;99879.66;7390005;19;20014;-57
2022/05/15 09:39:28;;;;;;;7.15;1.48;;;;;;;19.55;100.00;99871.22;7390160;19;20018;-56
2022/05/15 09:45:07;;;;;;;3.63;0.98;;;;;;;19.34;100.00;99887.97;7389139;19;20050;-56
2022/05/15 09:47:37;;;;;;;7.15;1.02;;;;;;;19.25;100.00;99885.50;7389345;19;20375;-56
2022/05/15 09:50:08;;;;;;;23.80;1.42;;;;;;;19.22;100.00;99878.09;7392039;19;20010;-56
2022/05/15 09:52:43;;;;;;;4.85;0.77;;;;;;;19.33;100.00;99866.66;7392140;19;20031;-56
2022/05/15 09:55:21;;;;;;;1.38;0.50;;;;;;;19.72;100.00;99871.72;7394135;19;20014;-56
2022/05/15 09:58:04;;;;;;;3.42;0.60;;;;;;;20.33;100.00;99865.03;7393671;19;20561;-56
2022/05/15 10:00:34;;;;;;;6.40;0.47;;;;;;;21.04;100.00;99865.66;7397743;19;20017;-56
2022/05/15 10:03:22;;;;;;;0.70;0.43;;;;;;;21.74;100.00;99868.69;7401032;19;20034;-56
2022/05/15 10:06:01;;;;;;;7.60;1.75;;;;;;;21.98;100.00;99854.19;7396626;19;20562;-56
2022/05/15 10:08:28;;;;;;;1.63;0.70;;;;;;;22.08;100.00;99855.22;7396391;19;20474;-56
2022/05/15 10:11:13;;;;;;;1.15;0.50;;;;;;;22.39;100.00;99854.09;7396237;19;20023;-56
2022/05/15 10:13:44;;;;;;;3.67;0.98;;;;;;;22.87;100.00;99851.75;7395840;19;20022;-56
2022/05/15 10:16:18;;;;;;;2.53;0.60;;;;;;;23.47;100.00;99842.69;7396564;19;20010;-55
2022/05/15 10:18:53;;;;;;;2.55;0.70;;;;;;;23.91;100.00;99847.66;7396165;19;20010;-56
2022/05/15 10:21:21;;;;;;;4.47;1.20;;;;;;;24.18;100.00;99850.16;7396986;19;20018;-56
2022/05/15 10:23:57;;;;;;;2.00;0.73;;;;;;;24.38;100.00;99837.81;7396510;19;20010;-56
2022/05/15 10:26:35;;;;;;;2.25;0.40;;;;;;;24.35;100.00;99838.94;7395056;19;20021;-55
2022/05/15 10:29:22;;;;;;;7.30;0.95;;;;;;;24.34;100.00;99838.19;7395241;19;20003;-56
2022/05/15 10:31:54;;;;;;;2.47;0.77;;;;;;;24.30;100.00;99837.06;7397013;19;20475;-55
2022/05/15 10:34:25;;;;;;;4.00;1.00;;;;;;;24.09;100.00;99835.19;7395969;19;20528;-56
2022/05/15 10:37:22;;;;;;;4.32;0.65;;;;;;;24.23;100.00;99832.13;7394111;19;20466;-56
2022/05/15 10:40:07;;;;;;;0.95;0.43;;;;;;;24.21;100.00;99827.03;7396896;19;20589;-56
2022/05/15 10:43:10;;;;;;;3.85;0.65;;;;;;;24.08;100.00;99830.81;7398670;19;20078;-56
2022/05/15 10:45:46;;;;;;;1.15;0.55;;;;;;;24.24;100.00;99830.78;7394625;19;20090;-56
2022/05/15 10:48:45;;;;;;;3.80;0.68;;;;;;;24.45;100.00;99822.81;7394007;19;20022;-55
2022/05/15 10:51:17;;;;;;;3.17;0.45;;;;;;;24.65;100.00;99821.78;7399373;19;20006;-56
2022/05/15 10:59:54;;;;;;;4.50;0.32;;;;;;;24.18;100.00;99813.16;7396407;19;20371;-55
2022/05/15 11:02:57;;;;;;;2.05;0.80;;;;;;;24.32;100.00;99811.63;7397781;19;20019;-55
2022/05/15 11:05:30;;;;;;;3.42;0.95;;;;;;;24.60;100.00;99811.38;7392462;19;20699;-55
2022/05/15 11:08:26;;;;;;;5.28;0.60;;;;;;;24.69;100.00;99808.66;7392779;19;20011;-55
2022/05/15 11:11:08;;;;;;;3.60;0.38;;;;;;;24.60;100.00;99797.13;7395456;19;20007;-56
2022/05/15 11:14:16;;;;;;;1.60;0.73;;;;;;;24.79;100.00;99797.47;7392279;19;20014;-56
2022/05/15 11:16:49;;;;;;;1.02;0.63;;;;;;;24.87;100.00;99792.47;7393046;19;20022;-55
2022/05/15 11:19:36;;;;;;;5.95;1.27;;;;;;;24.79;100.00;99798.22;7396050;19;20017;-56
2022/05/15 11:22:18;;;;;;;4.00;1.00;;;;;;;24.67;100.00;99796.31;7398572;19;20002;-56
2022/05/15 11:24:56;;;;;;;15.88;0.88;;;;;;;25.03;100.00;99793.94;7394805;19;20031;-56
2022/05/15 11:27:29;;;;;;;3.97;1.23;;;;;;;25.34;100.00;99789.53;7393824;19;20015;-56
2022/05/15 11:29:59;;;;;;;13.70;2.22;;;;;;;25.75;100.00;99782.41;7392811;19;20458;-56
2022/05/15 11:32:46;;;;;;;2.90;1.50;;;;;;;26.13;100.00;99794.31;7396002;19;20014;-56
2022/05/15 11:35:18;;;;;;;3.47;1.95;;;;;;;26.58;100.00;99792.28;7391215;19;20022;-56
2022/05/15 11:37:53;;;;;;;10.15;0.80;;;;;;;26.58;100.00;99793.06;7391592;19;20023;-56
2022/05/15 11:40:42;;;;;;;6.80;1.35;;;;;;;26.67;100.00;99774.47;7395455;19;20493;-56
2022/05/15 11:43:30;;;;;;;9.47;0.77;;;;;;;26.56;100.00;99778.59;7393024;19;20082;-56
2022/05/15 11:46:09;;;;;;;7.05;1.70;;;;;;;26.13;100.00;99787.81;7392732;19;20711;-56
2022/05/15 11:48:38;;;;;;;5.78;1.38;;;;;;;25.81;100.00;99767.94;7393050;19;20014;-56
2022/05/15 11:51:25;;;;;;;4.25;0.82;;;;;;;25.65;100.00;99760.84;7394883;19;20029;-56
2022/05/15 11:54:04;;;;;;;4.72;1.15;;;;;;;25.55;100.00;99775.72;7395303;19;20022;-56
2022/05/15 11:56:56;;;;;;;6.60;1.02;;;;;;;25.60;100.00;99764.69;7393211;19;20013;-56
2022/05/15 11:59:36;;;;;;;5.60;1.02;;;;;;;25.44;100.00;99759.09;7393526;19;20070;-56
2022/05/15 12:02:24;;;;;;;2.28;0.85;;;;;;;25.58;100.00;99755.97;7393629;19;20037;-56
2022/05/15 12:05:21;;;;;;;2.85;1.27;;;;;;;25.84;100.00;99753.25;7391765;19;20462;-56